createdAt,value
2018-10-18T00:01:48.309Z,11.00
2018-10-18T00:04:16.689Z,10.90
2018-10-18T00:06:45.036Z,10.90
2018-10-18T00:09:13.380Z,10.90
2018-10-18T00:11:41.741Z,10.80
2018-10-18T00:14:10.208Z,10.70
2018-10-18T00:16:38.578Z,10.70
2018-10-18T00:19:07.010Z,10.60
2018-10-18T00:21:35.386Z,10.60
2018-10-18T00:24:03.769Z,10.50
2018-10-18T00:26:32.152Z,10.40
2018-10-18T00:29:00.504Z,10.40
2018-10-18T00:31:28.946Z,10.40
2018-10-18T00:33:57.354Z,10.40
2018-10-18T00:36:25.772Z,10.40
2018-10-18T00:38:54.206Z,10.40
2018-10-18T00:41:22.551Z,10.40
2018-10-18T00:43:50.893Z,10.30
2018-10-18T00:46:19.215Z,10.30
2018-10-18T00:48:47.536Z,10.30
2018-10-18T00:51:15.891Z,10.20
2018-10-18T00:53:44.199Z,10.20
2018-10-18T00:56:12.560Z,10.20
2018-10-18T00:58:40.971Z,10.30
2018-10-18T01:01:09.323Z,10.20
2018-10-18T01:03:37.740Z,10.10
2018-10-18T01:06:06.238Z,10.00
2018-10-18T01:08:34.561Z,9.90
2018-10-18T01:11:02.963Z,9.80
2018-10-18T01:13:31.415Z,9.80
2018-10-18T01:15:59.873Z,9.70
2018-10-18T01:18:28.313Z,9.60
2018-10-18T01:20:56.713Z,9.60
2018-10-18T01:23:25.110Z,9.50
2018-10-18T01:25:53.611Z,9.40
2018-10-18T01:28:22.019Z,9.40
2018-10-18T01:30:50.356Z,9.30
2018-10-18T01:33:18.758Z,9.30
2018-10-18T01:35:47.247Z,9.30
2018-10-18T01:38:15.875Z,9.30
2018-10-18T01:40:44.170Z,9.30
2018-10-18T01:43:12.624Z,9.20
2018-10-18T01:45:41.034Z,9.20
2018-10-18T01:48:09.656Z,9.20
2018-10-18T01:50:38.038Z,9.20
2018-10-18T01:53:07.017Z,9.20
2018-10-18T01:55:35.457Z,9.20
2018-10-18T01:58:03.862Z,9.30
2018-10-18T02:00:32.394Z,9.30
2018-10-18T02:03:00.792Z,9.30
2018-10-18T02:05:29.219Z,9.30
2018-10-18T02:07:57.541Z,9.30
2018-10-18T02:10:25.906Z,9.30
2018-10-18T02:12:54.286Z,9.30
2018-10-18T02:15:22.753Z,9.40
2018-10-18T02:17:51.079Z,9.40
2018-10-18T02:20:19.522Z,9.40
2018-10-18T02:22:47.964Z,9.50
2018-10-18T02:25:16.423Z,9.50
2018-10-18T02:27:44.770Z,9.50
2018-10-18T02:30:13.224Z,9.50
2018-10-18T02:32:41.630Z,9.50
2018-10-18T02:35:09.961Z,9.50
2018-10-18T02:37:38.382Z,9.60
2018-10-18T02:40:06.826Z,9.60
2018-10-18T02:42:35.270Z,9.60
2018-10-18T02:45:03.690Z,9.60
2018-10-18T02:47:32.148Z,9.60
2018-10-18T02:50:00.534Z,9.60
2018-10-18T02:52:28.934Z,9.60
2018-10-18T02:54:57.303Z,9.50
2018-10-18T02:57:25.772Z,9.50
2018-10-18T02:59:54.172Z,9.50
2018-10-18T03:02:22.564Z,9.50
2018-10-18T03:04:51.024Z,9.40
2018-10-18T03:07:19.436Z,9.50
2018-10-18T03:09:47.925Z,9.40
2018-10-18T03:12:16.227Z,9.40
2018-10-18T03:14:44.539Z,9.40
2018-10-18T03:17:12.903Z,9.40
2018-10-18T03:19:41.296Z,9.30
2018-10-18T03:22:09.713Z,9.30
2018-10-18T03:24:38.099Z,9.20
2018-10-18T03:27:06.657Z,9.10
2018-10-18T03:29:35.070Z,9.00
2018-10-18T03:32:03.456Z,8.90
2018-10-18T03:34:31.919Z,8.70
2018-10-18T03:37:00.390Z,8.70
2018-10-18T03:39:28.817Z,8.70
2018-10-18T03:41:57.334Z,8.60
2018-10-18T03:44:25.696Z,8.60
2018-10-18T03:46:54.167Z,8.70
2018-10-18T03:49:22.648Z,8.60
2018-10-18T03:51:51.051Z,8.60
2018-10-18T03:54:19.389Z,8.60
2018-10-18T03:56:47.870Z,8.70
2018-10-18T03:59:16.110Z,8.70
2018-10-18T04:04:28.508Z,8.60
2018-10-18T04:06:56.716Z,8.50
2018-10-18T04:09:24.941Z,8.40
2018-10-18T04:11:53.183Z,8.40
2018-10-18T04:14:23.262Z,8.30
2018-10-18T04:16:51.616Z,8.30
2018-10-18T04:19:19.816Z,8.20
2018-10-18T04:21:48.078Z,8.20
2018-10-18T04:24:16.522Z,8.20
2018-10-18T04:26:44.719Z,8.10
2018-10-18T04:29:29.437Z,8.10
2018-10-18T04:31:58.037Z,8.00
2018-10-18T04:34:26.684Z,8.00
2018-10-18T04:37:05.050Z,8.00
2018-10-18T04:39:33.585Z,8.00
2018-10-18T04:42:01.970Z,8.00
2018-10-18T04:44:30.206Z,7.90
2018-10-18T04:46:58.570Z,8.00
2018-10-18T04:49:26.862Z,8.00
2018-10-18T04:51:55.126Z,8.00
2018-10-18T04:54:23.327Z,8.00
2018-10-18T04:56:51.590Z,8.00
2018-10-18T04:59:19.838Z,8.10
2018-10-18T05:01:48.127Z,8.20
2018-10-18T05:04:16.445Z,8.20
2018-10-18T05:06:44.630Z,8.10
2018-10-18T05:09:12.891Z,8.10
2018-10-18T05:11:41.067Z,8.10
2018-10-18T05:14:09.362Z,8.10
2018-10-18T05:16:37.578Z,8.10
2018-10-18T05:19:05.937Z,8.10
2018-10-18T05:21:34.059Z,8.10
2018-10-18T05:24:02.271Z,8.10
2018-10-18T05:26:30.495Z,8.10
2018-10-18T05:28:58.735Z,8.00
2018-10-18T05:31:27.025Z,8.00
2018-10-18T05:33:55.306Z,8.00
2018-10-18T05:36:23.656Z,8.00
2018-10-18T05:38:51.843Z,8.00
2018-10-18T05:41:20.030Z,8.00
2018-10-18T05:43:48.162Z,8.10
2018-10-18T05:46:16.307Z,8.10
2018-10-18T05:48:44.512Z,8.10
2018-10-18T05:51:12.739Z,8.10
2018-10-18T05:53:41.054Z,8.10
2018-10-18T05:56:09.263Z,8.20
2018-10-18T05:58:38.293Z,8.20
2018-10-18T06:01:07.035Z,8.20
2018-10-18T06:03:35.249Z,8.30
2018-10-18T06:06:03.530Z,8.30
2018-10-18T06:08:31.866Z,8.30
2018-10-18T06:11:11.550Z,8.30
2018-10-18T06:13:39.969Z,8.30
2018-10-18T06:16:08.215Z,8.20
2018-10-18T06:18:36.530Z,8.30
2018-10-18T06:21:04.897Z,8.30
2018-10-18T06:23:33.206Z,8.30
2018-10-18T06:26:01.496Z,8.40
2018-10-18T06:28:29.783Z,8.50
2018-10-18T06:30:58.123Z,8.40
2018-10-18T06:33:26.511Z,8.40
2018-10-18T06:35:54.773Z,8.40
2018-10-18T06:38:23.208Z,8.50
2018-10-18T06:40:51.611Z,8.50
2018-10-18T06:43:19.915Z,8.50
2018-10-18T06:45:48.326Z,8.60
2018-10-18T06:48:16.822Z,8.70
2018-10-18T06:50:45.200Z,8.80
2018-10-18T06:53:13.683Z,8.80
2018-10-18T06:55:42.344Z,8.90
2018-10-18T06:58:10.643Z,8.90
2018-10-18T07:00:39.003Z,8.90
2018-10-18T07:03:07.394Z,9.00
2018-10-18T07:05:35.735Z,9.10
2018-10-18T07:08:04.029Z,9.10
2018-10-18T07:10:32.337Z,9.10
2018-10-18T07:13:00.663Z,9.20
2018-10-18T07:15:28.992Z,9.40
2018-10-18T07:17:57.301Z,9.60
2018-10-18T07:20:25.567Z,9.70
2018-10-18T07:22:53.847Z,9.80
2018-10-18T07:25:22.132Z,9.90
2018-10-18T07:27:50.494Z,10.00
2018-10-18T07:30:18.902Z,10.10
2018-10-18T07:32:47.239Z,10.10
2018-10-18T07:35:15.538Z,10.10
2018-10-18T07:37:43.895Z,10.00
2018-10-18T07:40:14.068Z,10.10
2018-10-18T07:42:42.344Z,10.20
2018-10-18T07:45:11.556Z,10.40
2018-10-18T07:47:39.988Z,10.40
2018-10-18T07:50:08.523Z,10.50
2018-10-18T07:52:37.204Z,10.50
2018-10-18T07:55:06.315Z,10.60
2018-10-18T07:57:34.534Z,10.60
2018-10-18T08:00:03.178Z,10.60
2018-10-18T08:02:31.538Z,10.70
2018-10-18T08:04:59.735Z,10.90
2018-10-18T08:07:27.998Z,11.10
2018-10-18T08:09:56.519Z,11.40
2018-10-18T08:12:24.879Z,11.60
2018-10-18T08:14:53.351Z,11.50
2018-10-18T08:17:22.097Z,11.60
2018-10-18T08:19:52.329Z,11.70
2018-10-18T08:22:20.858Z,11.70
2018-10-18T08:24:49.345Z,11.80
2018-10-18T08:27:17.796Z,11.90
2018-10-18T08:29:46.308Z,12.10
2018-10-18T08:32:14.680Z,12.30
2018-10-18T08:34:43.086Z,12.40
2018-10-18T08:37:11.528Z,12.50
2018-10-18T08:39:39.840Z,12.60
2018-10-18T08:42:08.148Z,12.70
2018-10-18T08:44:36.662Z,13.10
2018-10-18T08:47:05.084Z,13.50
2018-10-18T08:49:33.356Z,14.40
2018-10-18T08:52:01.746Z,15.40
2018-10-18T08:54:30.246Z,16.50
2018-10-18T08:56:58.631Z,17.40
2018-10-18T08:59:27.092Z,18.20
2018-10-18T09:01:55.502Z,19.30
2018-10-18T09:04:23.883Z,20.70
2018-10-18T09:06:52.304Z,21.30
2018-10-18T09:09:20.596Z,21.60
2018-10-18T09:11:49.018Z,22.30
2018-10-18T09:14:17.434Z,23.30
2018-10-18T09:16:45.881Z,23.00
2018-10-18T09:19:14.434Z,22.30
2018-10-18T09:21:42.602Z,23.30
2018-10-18T09:24:10.940Z,23.30
2018-10-18T09:26:39.350Z,24.40
2018-10-18T09:29:07.756Z,24.50
2018-10-18T09:31:36.142Z,24.60
2018-10-18T09:34:04.626Z,24.40
2018-10-18T09:36:33.044Z,24.20
2018-10-18T09:39:01.430Z,24.10
2018-10-18T09:41:29.899Z,23.60
2018-10-18T09:43:58.363Z,23.40
2018-10-18T09:46:26.868Z,23.50
2018-10-18T09:48:55.357Z,22.70
2018-10-18T09:51:23.740Z,22.90
2018-10-18T09:53:52.174Z,23.60
2018-10-18T09:56:20.556Z,23.80
2018-10-18T09:58:48.962Z,23.30
2018-10-18T10:01:22.606Z,23.00
2018-10-18T10:03:51.076Z,22.40
2018-10-18T10:06:19.582Z,22.40
2018-10-18T10:08:48.044Z,22.70
2018-10-18T10:11:16.531Z,22.80
2018-10-18T10:13:44.913Z,22.60
2018-10-18T10:16:13.407Z,22.10
2018-10-18T10:18:41.910Z,20.60
2018-10-18T10:21:10.349Z,20.80
2018-10-18T10:23:38.746Z,20.20
2018-10-18T10:26:07.373Z,19.80
2018-10-18T10:28:35.826Z,19.30
2018-10-18T10:31:04.373Z,19.00
2018-10-18T10:33:32.727Z,18.80
2018-10-18T10:36:01.026Z,18.80
2018-10-18T10:38:29.380Z,18.90
2018-10-18T10:40:58.311Z,18.80
2018-10-18T10:43:26.755Z,18.60
2018-10-18T10:45:55.259Z,18.70
2018-10-18T10:48:23.700Z,18.80
2018-10-18T10:50:52.965Z,18.70
2018-10-18T10:53:21.869Z,19.00
2018-10-18T10:55:52.447Z,19.20
2018-10-18T10:58:20.871Z,19.10
2018-10-18T11:01:07.312Z,19.10
2018-10-18T11:03:35.935Z,19.30
2018-10-18T11:06:04.453Z,19.30
2018-10-18T11:08:32.800Z,19.40
2018-10-18T11:11:01.211Z,19.40
2018-10-18T11:13:30.212Z,19.50
2018-10-18T11:15:59.792Z,19.40
2018-10-18T11:18:28.507Z,19.20
2018-10-18T11:20:56.979Z,19.30
2018-10-18T11:23:25.426Z,19.20
2018-10-18T11:25:53.777Z,19.10
2018-10-18T11:28:22.208Z,19.20
2018-10-18T11:30:54.272Z,19.30
2018-10-18T11:33:22.689Z,19.30
2018-10-18T11:35:51.147Z,19.30
2018-10-18T11:38:19.586Z,19.30
2018-10-18T11:40:48.067Z,19.50
2018-10-18T11:43:16.573Z,19.50
2018-10-18T11:45:45.065Z,19.50
2018-10-18T11:48:14.439Z,19.60
2018-10-18T11:50:43.182Z,19.70
2018-10-18T11:53:11.518Z,19.70
2018-10-18T11:55:39.906Z,19.60
2018-10-18T11:58:09.142Z,19.50
2018-10-18T12:00:37.456Z,19.40
2018-10-18T12:03:11.372Z,19.50
2018-10-18T12:05:53.217Z,19.50
2018-10-18T12:14:39.643Z,19.80
2018-10-18T12:17:07.970Z,19.80
2018-10-18T12:19:36.153Z,19.80
2018-10-18T12:22:04.410Z,19.80
2018-10-18T12:24:33.097Z,19.90
2018-10-18T12:27:01.705Z,19.80
2018-10-18T12:29:30.139Z,19.90
2018-10-18T12:31:58.660Z,19.90
2018-10-18T12:34:27.087Z,19.80
2018-10-18T12:36:55.565Z,19.80
2018-10-18T12:39:24.578Z,20.10
2018-10-18T12:41:53.047Z,20.70
2018-10-18T12:44:21.483Z,21.20
2018-10-18T12:46:49.846Z,21.40
2018-10-18T12:49:18.235Z,21.30
2018-10-18T12:51:46.729Z,21.40
2018-10-18T12:54:15.210Z,20.80
2018-10-18T12:56:43.567Z,20.90
2018-10-18T12:59:11.947Z,21.00
2018-10-18T13:01:40.397Z,20.70
2018-10-18T13:04:08.883Z,20.60
2018-10-18T13:06:37.350Z,20.50
2018-10-18T13:09:08.322Z,20.40
2018-10-18T13:11:36.689Z,20.50
2018-10-18T13:14:05.282Z,20.50
2018-10-18T13:16:33.640Z,20.60
2018-10-18T13:19:01.994Z,20.60
2018-10-18T13:21:30.442Z,20.50
2018-10-18T13:23:58.896Z,20.50
2018-10-18T13:26:28.396Z,20.30
2018-10-18T13:28:56.804Z,20.40
2018-10-18T13:31:25.283Z,20.40
2018-10-18T13:33:53.723Z,20.50
2018-10-18T13:36:22.255Z,20.50
2018-10-18T13:38:50.487Z,20.40
2018-10-18T13:41:19.008Z,20.30
2018-10-18T13:43:47.421Z,20.50
2018-10-18T13:46:15.824Z,20.80
2018-10-18T13:48:44.248Z,21.00
2018-10-18T13:51:12.532Z,21.20
2018-10-18T13:53:42.205Z,21.50
2018-10-18T13:56:11.689Z,21.60
2018-10-18T13:58:39.852Z,21.30
2018-10-18T14:01:08.231Z,21.00
2018-10-18T14:03:36.572Z,20.70
2018-10-18T14:06:04.942Z,20.40
2018-10-18T14:08:33.475Z,20.30
2018-10-18T14:11:01.900Z,20.30
2018-10-18T14:13:30.219Z,20.20
2018-10-18T14:15:58.655Z,20.20
2018-10-18T14:18:27.063Z,20.00
2018-10-18T14:20:55.454Z,20.00
2018-10-18T14:23:23.895Z,20.00
2018-10-18T14:25:52.312Z,20.00
2018-10-18T14:28:20.748Z,20.00
2018-10-18T14:30:49.226Z,19.90
2018-10-18T14:33:17.475Z,19.90
2018-10-18T14:35:45.859Z,19.90
2018-10-18T14:38:15.125Z,19.90
2018-10-18T14:40:43.436Z,19.80
2018-10-18T14:43:11.879Z,19.70
2018-10-18T14:45:40.278Z,19.70
2018-10-18T14:48:08.699Z,19.70
2018-10-18T14:50:37.269Z,19.60
2018-10-18T14:53:05.376Z,19.60
2018-10-18T14:55:34.023Z,19.50
2018-10-18T14:58:02.439Z,19.40
2018-10-18T15:00:30.753Z,19.40
2018-10-18T15:02:59.137Z,19.40
2018-10-18T15:05:27.522Z,19.40
2018-10-18T15:07:55.945Z,19.40
2018-10-18T15:10:24.276Z,19.40
2018-10-18T15:12:52.671Z,19.30
2018-10-18T15:15:21.047Z,19.30
2018-10-18T15:17:49.471Z,19.20
2018-10-18T15:20:17.933Z,19.20
2018-10-18T15:22:46.371Z,19.10
2018-10-18T15:25:14.845Z,19.10
2018-10-18T15:27:43.500Z,19.00
2018-10-18T15:30:12.430Z,18.90
2018-10-18T15:32:40.997Z,18.80
2018-10-18T15:35:10.074Z,18.80
2018-10-18T15:37:38.500Z,18.70
2018-10-18T15:40:07.112Z,18.70
2018-10-18T15:42:35.510Z,18.60
2018-10-18T15:45:03.961Z,18.60
2018-10-18T15:47:33.142Z,18.50
2018-10-18T15:50:01.476Z,18.50
2018-10-18T15:52:29.786Z,18.40
2018-10-18T15:54:58.219Z,18.30
2018-10-18T15:57:26.634Z,18.30
2018-10-18T15:59:54.997Z,18.30
2018-10-18T16:02:23.356Z,18.20
2018-10-18T16:04:51.758Z,18.10
2018-10-18T16:07:20.156Z,18.00
2018-10-18T16:09:48.589Z,17.90
2018-10-18T16:12:16.960Z,17.70
2018-10-18T16:14:45.359Z,17.60
2018-10-18T16:17:13.828Z,17.50
2018-10-18T16:19:42.175Z,17.40
2018-10-18T16:22:10.550Z,17.20
2018-10-18T16:24:38.936Z,17.20
2018-10-18T16:27:07.366Z,17.00
2018-10-18T16:29:35.787Z,16.90
2018-10-18T16:32:04.229Z,16.80
2018-10-18T16:34:32.917Z,16.70
2018-10-18T16:37:01.382Z,16.60
2018-10-18T16:39:29.807Z,16.60
2018-10-18T16:41:58.294Z,16.50
2018-10-18T16:44:26.608Z,16.40
2018-10-18T16:46:55.044Z,16.30
2018-10-18T16:49:23.520Z,16.20
2018-10-18T16:51:52.307Z,16.10
2018-10-18T16:54:20.714Z,16.10
2018-10-18T16:56:49.279Z,16.00
2018-10-18T16:59:17.715Z,15.90
2018-10-18T17:01:46.098Z,15.80
2018-10-18T17:04:14.606Z,15.70
2018-10-18T17:06:42.913Z,15.60
2018-10-18T17:09:11.740Z,15.60
2018-10-18T17:11:40.157Z,15.50
2018-10-18T17:14:08.748Z,15.40
2018-10-18T17:16:37.216Z,15.40
2018-10-18T17:19:05.774Z,15.30
2018-10-18T17:21:34.193Z,15.30
2018-10-18T17:24:02.676Z,15.20
2018-10-18T17:26:31.335Z,15.20
2018-10-18T17:29:01.019Z,15.10
2018-10-18T17:31:29.576Z,15.10
2018-10-18T17:34:00.327Z,15.10
2018-10-18T17:36:28.829Z,15.00
2018-10-18T17:38:57.255Z,14.90
2018-10-18T17:41:25.860Z,14.90
2018-10-18T17:43:54.326Z,14.80
2018-10-18T17:46:22.929Z,14.80
2018-10-18T17:48:51.521Z,14.80
2018-10-18T17:51:19.989Z,14.70
2018-10-18T17:53:48.481Z,14.70
2018-10-18T17:56:17.604Z,14.70
2018-10-18T17:58:46.176Z,14.70
2018-10-18T18:01:14.679Z,14.60
2018-10-18T18:03:43.244Z,14.60
2018-10-18T18:06:11.845Z,14.60
2018-10-18T18:08:40.117Z,14.50
2018-10-18T18:11:08.484Z,14.50
2018-10-18T18:13:36.680Z,14.40
2018-10-18T18:34:33.895Z,14.00
2018-10-18T18:37:08.309Z,14.00
2018-10-18T18:39:36.637Z,14.00
2018-10-18T18:42:04.824Z,13.90
2018-10-18T18:44:33.592Z,13.90
2018-10-18T18:47:04.049Z,13.80
2018-10-18T18:49:35.466Z,13.80
2018-10-18T18:52:04.064Z,13.70
2018-10-18T18:54:32.584Z,13.70
2018-10-18T18:57:01.020Z,13.70
2018-10-18T18:59:29.401Z,13.70
2018-10-18T19:01:57.682Z,13.70
2018-10-18T19:04:26.188Z,13.60
2018-10-18T19:06:54.415Z,13.60
2018-10-18T19:09:22.686Z,13.60
2018-10-18T19:11:51.033Z,13.50
2018-10-18T19:14:19.888Z,13.50
2018-10-18T19:16:48.248Z,13.50
2018-10-18T19:19:18.511Z,13.40
2018-10-18T19:21:46.986Z,13.30
2018-10-18T19:24:15.543Z,13.30
2018-10-18T19:26:43.786Z,13.20
2018-10-18T19:29:12.252Z,13.20
2018-10-18T19:31:40.544Z,13.10
2018-10-18T19:34:08.727Z,13.10
2018-10-18T19:36:36.866Z,13.10
2018-10-18T19:39:07.053Z,13.10
2018-10-18T19:41:35.257Z,13.00
2018-10-18T19:44:03.501Z,13.00
2018-10-18T19:46:32.266Z,12.90
2018-10-18T19:49:00.827Z,12.90
2018-10-18T19:51:29.314Z,12.80
2018-10-18T19:59:45.323Z,12.70
2018-10-18T20:02:14.049Z,12.60
2018-10-18T20:04:42.617Z,12.60
2018-10-18T20:07:12.203Z,12.50
2018-10-18T20:28:00.414Z,11.90
2018-10-18T20:36:27.436Z,11.80
2018-10-18T20:38:55.895Z,11.80
2018-10-18T20:41:25.293Z,11.80
2018-10-18T20:43:54.011Z,11.80
2018-10-18T20:46:22.214Z,11.80
2018-10-18T20:48:50.663Z,11.80
2018-10-18T20:51:18.954Z,11.80
2018-10-18T20:53:47.847Z,11.80
2018-10-18T20:56:16.155Z,11.80
2018-10-18T20:58:44.537Z,11.80
2018-10-18T21:01:12.849Z,11.90
2018-10-18T21:03:41.213Z,11.90
2018-10-18T21:06:10.200Z,11.90
2018-10-18T21:08:38.619Z,11.90
2018-10-18T21:11:07.071Z,11.90
2018-10-18T21:13:35.455Z,11.90
2018-10-18T21:16:03.991Z,11.80
2018-10-18T21:18:32.450Z,11.80
2018-10-18T21:21:00.928Z,11.80
2018-10-18T21:23:29.291Z,11.80
2018-10-18T21:25:57.696Z,11.80
2018-10-18T21:28:26.137Z,11.80
2018-10-18T21:30:54.403Z,11.70
2018-10-18T21:33:22.742Z,11.70
2018-10-18T21:35:51.231Z,11.60
2018-10-18T21:38:19.699Z,11.60
2018-10-18T21:40:48.224Z,11.60
2018-10-18T21:43:16.727Z,11.50
2018-10-18T21:45:45.269Z,11.50
2018-10-18T21:48:13.786Z,11.50
2018-10-18T21:50:42.363Z,11.50
2018-10-18T21:53:10.823Z,11.50
2018-10-18T21:55:39.272Z,11.50
2018-10-18T21:58:07.777Z,11.50
2018-10-18T22:00:41.431Z,11.50
2018-10-18T22:03:09.971Z,11.50
2018-10-18T22:05:38.344Z,11.50
2018-10-18T22:08:06.957Z,11.50
2018-10-18T22:10:35.438Z,11.50
2018-10-18T22:13:03.927Z,11.50
2018-10-18T22:15:32.371Z,11.50
2018-10-18T22:18:00.886Z,11.40
2018-10-18T22:20:29.396Z,11.40
2018-10-18T22:22:57.921Z,11.40
2018-10-18T22:25:26.446Z,11.30
2018-10-18T22:27:54.864Z,11.30
2018-10-18T22:30:23.415Z,11.30
2018-10-18T22:32:52.063Z,11.20
2018-10-18T22:35:20.561Z,11.10
2018-10-18T22:37:49.174Z,11.10
2018-10-18T22:40:17.665Z,11.00
2018-10-18T22:42:46.238Z,11.00
2018-10-18T22:45:14.911Z,10.90
2018-10-18T22:47:43.427Z,10.80
2018-10-18T22:50:12.044Z,10.80
2018-10-18T22:52:40.607Z,10.70
2018-10-18T22:55:09.259Z,10.70
2018-10-18T22:57:37.859Z,10.60
2018-10-18T23:00:07.738Z,10.50
2018-10-18T23:02:36.472Z,10.50
2018-10-18T23:05:05.330Z,10.40
2018-10-18T23:07:34.139Z,10.40
2018-10-18T23:10:04.222Z,10.40
2018-10-18T23:12:33.111Z,10.30
2018-10-18T23:15:02.170Z,10.30
2018-10-18T23:17:31.030Z,10.30
2018-10-18T23:20:06.480Z,10.30
2018-10-18T23:22:36.099Z,10.30
2018-10-18T23:25:05.053Z,10.30
2018-10-18T23:27:33.659Z,10.30
2018-10-18T23:30:02.159Z,10.30
2018-10-18T23:32:30.914Z,10.40
2018-10-18T23:34:59.608Z,10.50
2018-10-18T23:37:28.093Z,10.50
2018-10-18T23:39:56.620Z,10.50
2018-10-18T23:42:25.100Z,10.50
2018-10-18T23:44:53.649Z,10.50
2018-10-18T23:47:22.196Z,10.60
2018-10-18T23:49:50.695Z,10.60
2018-10-18T23:52:19.295Z,10.70
2018-10-18T23:54:47.802Z,10.70
2018-10-18T23:57:16.458Z,10.70
2018-10-18T23:59:44.844Z,10.60
